Time;durP1;ratioP1;P1;durP2;ratioP2;P2;SDS_P1;SDS_P2;PMS_P1;PMS_P2;Temp;Humidity;BMP_temperature;BMP_pressure;BME280_temperature;BME280_humidity;BME280_pressure;Samples;Min_cycle;Max_cycle;Signal;HPM_P1;HPM_P2
2021/07/24 00:01:05;;;;;;;7.40;4.10;;;;;;;17.36;63.18;99130.00;5090603;28;20063;-68
2021/07/24 00:03:31;;;;;;;7.78;4.30;;;;;;;17.43;63.22;99148.97;5073839;28;20055;-68
2021/07/24 00:05:56;;;;;;;5.85;3.90;;;;;;;17.40;63.21;99147.38;5091826;28;20040;-68
2021/07/24 00:08:22;;;;;;;9.43;4.22;;;;;;;17.41;63.20;99149.06;5091155;28;20497;-68
2021/07/24 00:10:48;;;;;;;9.25;4.30;;;;;;;17.32;63.24;99135.56;5074092;28;20413;-67
2021/07/24 00:13:14;;;;;;;8.18;3.90;;;;;;;17.41;63.08;99154.34;5090870;28;20048;-69
2021/07/24 00:15:40;;;;;;;11.45;4.53;;;;;;;17.41;63.22;99154.34;5074163;28;20047;-67
2021/07/24 00:18:06;;;;;;;9.70;4.57;;;;;;;17.46;62.91;99149.63;5090734;28;20044;-67
2021/07/24 00:20:31;;;;;;;7.43;4.25;;;;;;;17.45;62.55;99155.84;5072678;28;20048;-68
2021/07/24 00:22:57;;;;;;;8.38;3.88;;;;;;;17.37;62.67;99142.25;5090833;28;20036;-68
2021/07/24 00:25:23;;;;;;;11.65;4.13;;;;;;;17.39;62.43;99152.75;5090308;28;20040;-67
2021/07/24 00:27:48;;;;;;;4.80;3.78;;;;;;;17.38;62.46;99159.81;5038920;28;20086;-67
2021/07/24 00:30:15;;;;;;;11.20;3.80;;;;;;;17.40;62.36;99160.59;5089564;28;20047;-68
2021/07/24 00:32:46;;;;;;;7.57;3.92;;;;;;;17.35;62.36;99140.66;5089012;28;20087;-67
2021/07/24 00:35:12;;;;;;;7.28;3.75;;;;;;;17.33;62.45;99151.31;5089633;28;20075;-68
2021/07/24 00:37:38;;;;;;;6.78;3.40;;;;;;;17.40;61.69;99168.50;5090420;28;20040;-67
2021/07/24 00:40:04;;;;;;;11.15;3.80;;;;;;;17.40;61.93;99172.94;5089798;28;20036;-68
2021/07/24 00:42:31;;;;;;;7.10;3.80;;;;;;;17.32;62.11;99154.91;5090458;28;20421;-70
2021/07/24 00:45:00;;;;;;;6.55;3.28;;;;;;;17.33;61.94;99159.25;5073783;28;20122;-68
2021/07/24 00:47:34;;;;;;;6.88;3.53;;;;;;;17.38;61.72;99167.75;5073535;28;20505;-67
2021/07/24 00:50:15;;;;;;;3.90;3.38;;;;;;;17.35;62.13;99165.31;5076441;28;20052;-68
2021/07/24 00:52:42;;;;;;;6.85;3.80;;;;;;;17.33;62.49;99166.34;5073567;28;20043;-68
2021/07/24 00:55:12;;;;;;;5.88;3.60;;;;;;;17.28;62.25;99174.56;5072521;28;20048;-70
2021/07/24 00:57:44;;;;;;;6.07;3.55;;;;;;;17.26;62.27;99171.16;5073768;28;20040;-69
2021/07/24 01:00:11;;;;;;;5.80;3.63;;;;;;;17.22;62.44;99172.28;5090593;28;20047;-67
2021/07/24 01:02:38;;;;;;;6.75;4.18;;;;;;;17.19;62.14;99172.47;5073019;28;20067;-68
2021/07/24 01:05:06;;;;;;;5.70;3.63;;;;;;;17.17;62.74;99169.06;5056057;28;20040;-70
2021/07/24 01:07:39;;;;;;;8.70;4.68;;;;;;;17.14;62.93;99171.91;5072661;28;20055;-69
2021/07/24 01:10:07;;;;;;;8.95;4.25;;;;;;;17.11;63.23;99182.66;5055210;28;20131;-69
2021/07/24 01:12:33;;;;;;;5.13;3.83;;;;;;;17.02;63.46;99175.25;5056247;28;20048;-69
2021/07/24 01:15:07;;;;;;;6.25;4.20;;;;;;;16.90;63.82;99162.75;5072120;28;20048;-69
2021/07/24 01:17:33;;;;;;;9.00;3.90;;;;;;;16.90;64.01;99171.53;5073310;28;20172;-69
2021/07/24 01:20:03;;;;;;;7.85;3.90;;;;;;;16.87;64.31;99173.50;5089353;28;20405;-69
2021/07/24 01:22:31;;;;;;;4.20;3.40;;;;;;;16.80;64.38;99179.16;5072909;28;20134;-68
2021/07/24 01:24:57;;;;;;;6.05;3.50;;;;;;;16.76;64.46;99179.41;5056830;28;20131;-68
2021/07/24 01:27:23;;;;;;;4.00;3.45;;;;;;;16.70;64.48;99179.78;5087961;28;20565;-69
2021/07/24 01:29:51;;;;;;;7.28;3.60;;;;;;;16.69;64.49;99181.56;5039512;28;20075;-69
2021/07/24 01:32:24;;;;;;;7.63;4.00;;;;;;;16.66;64.49;99186.19;5072745;28;20048;-68
2021/07/24 01:34:52;;;;;;;7.47;3.33;;;;;;;16.64;64.63;99188.88;5089495;28;20405;-68
2021/07/24 01:37:21;;;;;;;7.38;3.88;;;;;;;16.59;64.70;99185.66;5089305;28;20135;-67
2021/07/24 01:39:49;;;;;;;10.73;3.60;;;;;;;16.55;64.42;99175.34;5088849;28;20044;-68
2021/07/24 01:42:15;;;;;;;5.75;3.58;;;;;;;16.65;64.43;99200.28;5088550;28;20089;-70
2021/07/24 01:44:48;;;;;;;7.63;3.28;;;;;;;16.62;64.37;99196.03;5077644;28;20051;-68
2021/07/24 01:47:18;;;;;;;3.97;3.58;;;;;;;16.66;64.31;99197.59;5077380;28;20063;-69
2021/07/24 01:52:51;;;;;;;6.82;3.58;;;;;;;16.73;64.36;99193.66;5094397;28;20511;-68
2021/07/24 01:55:48;;;;;;;4.85;3.50;;;;;;;16.75;64.10;99197.06;5077465;28;20039;-68
2021/07/24 01:58:19;;;;;;;5.53;3.80;;;;;;;16.76;64.17;99198.75;5072137;28;20051;-68
2021/07/24 02:00:52;;;;;;;4.53;4.05;;;;;;;16.72;64.40;99199.88;5078310;28;20043;-69
2021/07/24 02:03:35;;;;;;;7.95;4.82;;;;;;;16.81;64.76;99203.78;5077349;28;20433;-67
2021/07/24 02:06:31;;;;;;;8.40;4.47;;;;;;;16.83;64.93;99215.09;5068933;28;20097;-69
2021/07/24 02:09:22;;;;;;;6.43;4.00;;;;;;;16.82;64.99;99222.19;5079307;28;20048;-67
2021/07/24 02:11:55;;;;;;;10.73;4.40;;;;;;;16.86;64.90;99224.63;5077701;28;20114;-69
2021/07/24 02:14:24;;;;;;;14.05;4.30;;;;;;;16.87;65.20;99219.25;5060010;28;20040;-69
2021/07/24 02:17:03;;;;;;;7.93;4.20;;;;;;;16.89;65.26;99221.81;5077157;28;20052;-70
2021/07/24 02:19:36;;;;;;;7.32;4.15;;;;;;;16.89;64.95;99213.88;5076879;28;20222;-68
2021/07/24 02:22:03;;;;;;;5.75;4.15;;;;;;;17.01;64.71;99226.38;5060492;28;20461;-68
2021/07/24 02:24:31;;;;;;;7.38;4.00;;;;;;;17.06;64.40;99227.81;5076015;28;20497;-67
2021/07/24 02:26:59;;;;;;;7.15;4.18;;;;;;;17.12;64.30;99226.63;5077304;28;20043;-67
2021/07/24 02:29:37;;;;;;;6.40;4.63;;;;;;;17.22;64.04;99224.28;5092945;28;20127;-69
2021/07/24 02:32:05;;;;;;;8.63;4.45;;;;;;;17.19;63.67;99220.03;5092944;28;20057;-68
2021/07/24 02:34:30;;;;;;;8.55;4.13;;;;;;;17.31;63.35;99221.09;5075243;28;20036;-68
2021/07/24 02:36:56;;;;;;;5.97;4.53;;;;;;;17.36;62.91;99230.44;5092653;28;20039;-67
2021/07/24 02:39:22;;;;;;;7.32;4.15;;;;;;;17.36;62.95;99230.44;5091642;28;20040;-68
2021/07/24 02:41:48;;;;;;;6.00;4.15;;;;;;;17.34;63.43;99232.34;5075332;28;20416;-67
2021/07/24 02:44:14;;;;;;;8.70;4.13;;;;;;;17.34;64.46;99228.84;5092057;28;20048;-67
2021/07/24 02:46:40;;;;;;;9.60;4.72;;;;;;;17.40;64.22;99234.59;5058051;28;20044;-67
2021/07/24 02:49:08;;;;;;;6.22;3.78;;;;;;;17.36;65.01;99245.47;5090721;28;20055;-67
2021/07/24 02:51:38;;;;;;;9.82;5.18;;;;;;;17.37;65.29;99239.22;5076032;28;20043;-66
2021/07/24 02:54:06;;;;;;;7.35;4.07;;;;;;;17.44;63.83;99244.06;5090935;28;20114;-69
2021/07/24 02:56:35;;;;;;;13.82;4.50;;;;;;;17.55;63.91;99250.50;5075075;28;20124;-68
2021/07/24 02:59:01;;;;;;;10.85;4.53;;;;;;;17.64;63.36;99249.94;5075090;28;20112;-68
2021/07/24 03:01:26;;;;;;;8.63;4.50;;;;;;;17.67;63.94;99249.78;5091082;28;20869;-67
2021/07/24 03:03:52;;;;;;;16.20;4.22;;;;;;;17.64;63.61;99257.84;5092053;28;20421;-68
2021/07/24 03:06:18;;;;;;;21.38;7.95;;;;;;;17.59;62.70;99244.06;5058383;28;20500;-68
2021/07/24 03:08:43;;;;;;;8.80;4.72;;;;;;;17.65;62.42;99246.34;5075482;28;20051;-67
2021/07/24 03:11:10;;;;;;;5.88;4.47;;;;;;;17.76;62.17;99257.16;5075346;28;20500;-66
2021/07/24 03:13:36;;;;;;;14.07;4.95;;;;;;;17.86;62.02;99260.09;5093350;28;20130;-68
2021/07/24 03:16:02;;;;;;;12.02;4.40;;;;;;;17.92;61.97;99271.16;5074440;28;20048;-67
2021/07/24 03:18:27;;;;;;;8.73;4.28;;;;;;;18.00;61.50;99268.88;5091197;28;20052;-69
2021/07/24 03:20:53;;;;;;;10.45;4.60;;;;;;;18.12;61.16;99271.72;5091971;28;20134;-68
2021/07/24 03:23:19;;;;;;;5.30;4.30;;;;;;;18.14;60.81;99254.78;5092769;28;20044;-67
2021/07/24 03:25:45;;;;;;;6.30;4.30;;;;;;;18.45;59.97;99268.72;5074002;28;20512;-67
2021/07/24 03:28:10;;;;;;;8.48;4.07;;;;;;;18.35;59.75;99255.22;5091653;28;20382;-67
2021/07/24 03:30:39;;;;;;;15.38;3.80;;;;;;;18.51;59.49;99271.81;5091144;28;20036;-67
2021/07/24 03:33:05;;;;;;;4.95;4.18;;;;;;;18.55;59.38;99257.44;5090999;28;20496;-67
2021/07/24 03:35:31;;;;;;;3.97;3.60;;;;;;;18.75;58.95;99273.91;5091898;28;20036;-67
2021/07/24 03:38:04;;;;;;;10.02;4.47;;;;;;;18.83;58.71;99279.56;5091827;28;20537;-68
2021/07/24 03:40:30;;;;;;;6.18;4.05;;;;;;;18.87;58.22;99266.00;5093192;28;20139;-67
2021/07/24 03:42:57;;;;;;;8.00;4.30;;;;;;;19.08;57.79;99284.94;5074533;28;20044;-68
2021/07/24 03:45:22;;;;;;;11.40;4.07;;;;;;;19.07;57.38;99283.22;5091554;28;20148;-70
2021/07/24 03:47:48;;;;;;;6.65;4.20;;;;;;;19.08;57.60;99284.06;5072968;28;20115;-67
2021/07/24 03:50:14;;;;;;;6.68;3.63;;;;;;;19.03;57.70;99287.88;5089766;28;20508;-67
2021/07/24 03:52:40;;;;;;;4.97;4.22;;;;;;;19.01;57.99;99287.13;5066778;28;20052;-68
2021/07/24 03:55:06;;;;;;;7.80;4.20;;;;;;;18.94;57.53;99275.25;5070383;28;20469;-68
2021/07/24 03:57:31;;;;;;;6.75;4.10;;;;;;;18.98;57.90;99295.28;5071294;28;20044;-69
2021/07/24 04:00:00;;;;;;;10.73;3.97;;;;;;;19.01;57.93;99291.59;5053132;28;20127;-68
2021/07/24 04:02:27;;;;;;;10.32;4.20;;;;;;;19.08;57.46;99295.53;5054442;28;20052;-67
2021/07/24 04:04:53;;;;;;;6.53;3.75;;;;;;;19.16;57.23;99306.47;5070307;28;20051;-67
2021/07/24 04:07:20;;;;;;;7.38;4.38;;;;;;;19.22;57.26;99284.84;5052069;28;20127;-68
2021/07/24 04:09:46;;;;;;;7.68;4.10;;;;;;;19.44;56.76;99305.50;5067857;28;20191;-68
2021/07/24 04:12:12;;;;;;;6.40;4.35;;;;;;;19.46;56.69;99306.25;5071671;28;20489;-68
2021/07/24 04:14:38;;;;;;;7.05;4.93;;;;;;;19.59;56.42;99311.59;5069490;28;20044;-68
2021/07/24 04:17:04;;;;;;;15.95;5.78;;;;;;;19.64;55.90;99304.19;5053821;28;20055;-67
2021/07/24 04:19:31;;;;;;;6.65;4.30;;;;;;;19.90;55.45;99305.03;5053239;28;20086;-68
2021/07/24 04:21:56;;;;;;;12.52;4.43;;;;;;;20.16;54.03;99316.53;5054696;28;20055;-67
2021/07/24 04:24:22;;;;;;;5.47;3.45;;;;;;;20.17;54.33;99324.38;5052506;28;20052;-68
2021/07/24 04:26:49;;;;;;;13.57;3.88;;;;;;;20.29;53.60;99322.66;5052655;28;20040;-68
2021/07/24 04:29:15;;;;;;;7.85;4.28;;;;;;;20.80;52.52;99322.56;5069311;28;20155;-68
2021/07/24 04:31:41;;;;;;;5.53;3.92;;;;;;;21.49;50.33;99331.63;5070077;28;20048;-67
2021/07/24 04:34:07;;;;;;;6.63;3.83;;;;;;;21.40;50.38;99324.34;5069665;28;20036;-68
2021/07/24 04:36:33;;;;;;;12.55;3.95;;;;;;;21.22;50.92;99340.72;5069904;28;20154;-67
2021/07/24 04:38:59;;;;;;;6.90;4.32;;;;;;;21.27;51.07;99339.53;5069093;28;20094;-67
2021/07/24 04:41:24;;;;;;;11.18;3.92;;;;;;;21.49;50.24;99343.13;5052192;28;20481;-67
2021/07/24 04:43:50;;;;;;;5.38;3.70;;;;;;;21.36;50.23;99338.84;5069317;28;20082;-67
2021/07/24 04:46:16;;;;;;;4.75;2.63;;;;;;;21.33;46.15;99331.94;5070607;28;20058;-67
2021/07/24 04:48:42;;;;;;;11.30;2.92;;;;;;;21.36;47.62;99352.16;5070173;28;20084;-69
2021/07/24 04:51:08;;;;;;;5.60;3.42;;;;;;;21.36;46.98;99344.16;5069778;28;20056;-67
2021/07/24 04:53:34;;;;;;;8.30;3.20;;;;;;;22.00;45.80;99347.25;5069516;28;20059;-68
2021/07/24 04:56:02;;;;;;;5.60;2.90;;;;;;;22.35;44.33;99339.22;5066108;28;20143;-68
2021/07/24 04:58:29;;;;;;;9.18;3.00;;;;;;;22.60;43.74;99359.44;5068015;28;20477;-67
2021/07/24 05:00:55;;;;;;;5.25;2.40;;;;;;;22.42;42.84;99354.63;5069941;28;20405;-70
2021/07/24 05:03:21;;;;;;;3.85;2.63;;;;;;;22.22;43.64;99357.13;5035169;28;20041;-67
2021/07/24 05:05:47;;;;;;;4.57;2.60;;;;;;;22.05;43.78;99356.63;5051422;28;20040;-67
2021/07/24 05:08:13;;;;;;;3.97;2.63;;;;;;;21.87;44.47;99348.22;5034581;28;20412;-67
2021/07/24 05:10:40;;;;;;;5.50;2.33;;;;;;;21.73;44.68;99356.41;5051537;28;20041;-67
2021/07/24 05:13:06;;;;;;;5.40;2.53;;;;;;;21.67;43.87;99348.91;5066920;28;20064;-67
2021/07/24 05:15:32;;;;;;;6.18;2.10;;;;;;;22.00;43.76;99368.56;5034551;28;20410;-68
2021/07/24 05:17:57;;;;;;;5.57;2.30;;;;;;;22.09;43.39;99368.75;5050768;28;20115;-68
2021/07/24 05:20:26;;;;;;;6.30;2.30;;;;;;;22.23;42.93;99370.31;5051113;28;20065;-68
2021/07/24 05:22:52;;;;;;;5.22;2.55;;;;;;;22.32;42.64;99363.47;5052910;28;20043;-68
2021/07/24 05:25:18;;;;;;;2.67;2.38;;;;;;;22.78;41.65;99377.50;5068817;28;20131;-68
2021/07/24 05:27:43;;;;;;;4.10;2.33;;;;;;;23.16;40.43;99370.91;5068231;28;20044;-68
2021/07/24 05:30:10;;;;;;;3.85;2.63;;;;;;;23.87;38.65;99371.25;5049955;28;20578;-67
2021/07/24 05:32:35;;;;;;;3.53;2.45;;;;;;;23.77;39.17;99376.50;5069013;28;20589;-68
2021/07/24 05:35:02;;;;;;;7.25;2.45;;;;;;;23.60;39.15;99369.91;5051580;28;20459;-68
2021/07/24 05:37:27;;;;;;;5.20;2.30;;;;;;;23.42;39.58;99390.13;5033855;28;20123;-68
2021/07/24 05:39:53;;;;;;;8.02;2.50;;;;;;;23.68;39.37;99385.28;5051370;28;20450;-69
2021/07/24 05:42:19;;;;;;;2.67;2.17;;;;;;;23.81;38.45;99383.31;5067988;28;20254;-67
2021/07/24 05:44:45;;;;;;;3.28;2.97;;;;;;;24.92;36.69;99381.66;5067146;28;20036;-69
2021/07/24 05:47:10;;;;;;;5.75;2.25;;;;;;;25.92;34.67;99382.34;5068634;28;20521;-69
2021/07/24 05:49:37;;;;;;;8.32;2.53;;;;;;;25.94;33.74;99384.88;5033666;28;20048;-70
2021/07/24 05:52:09;;;;;;;2.20;1.60;;;;;;;26.33;33.17;99390.22;5069419;28;20052;-69
2021/07/24 05:54:38;;;;;;;5.30;2.20;;;;;;;26.32;33.12;99383.13;5068657;28;20044;-69
2021/07/24 05:57:05;;;;;;;3.72;1.90;;;;;;;26.16;32.64;99387.25;5067943;28;20097;-70
2021/07/24 05:59:31;;;;;;;8.95;1.90;;;;;;;26.63;31.93;99384.59;5051030;28;20067;-68
2021/07/24 06:01:58;;;;;;;6.68;2.35;;;;;;;27.08;30.24;99379.31;5051379;28;20045;-69
2021/07/24 06:04:23;;;;;;;3.33;1.55;;;;;;;27.27;28.77;99390.91;5068893;28;20040;-67
2021/07/24 06:06:49;;;;;;;1.77;1.52;;;;;;;26.69;29.51;99386.69;5067772;28;20108;-69
2021/07/24 06:09:15;;;;;;;8.93;1.70;;;;;;;25.47;31.15;99386.56;5068743;28;20048;-69
2021/07/24 06:11:41;;;;;;;2.30;1.58;;;;;;;24.37;32.98;99370.44;5049824;28;20037;-67
2021/07/24 06:14:06;;;;;;;2.13;1.40;;;;;;;24.30;31.87;99388.00;5069543;28;20044;-67
2021/07/24 06:16:32;;;;;;;7.50;1.70;;;;;;;23.31;34.38;99390.16;5068372;28;20055;-69
2021/07/24 06:19:01;;;;;;;2.92;1.70;;;;;;;23.81;33.38;99390.47;5067056;28;20502;-71
2021/07/24 06:21:27;;;;;;;1.98;1.50;;;;;;;24.00;32.73;99385.28;5048898;28;20093;-70
2021/07/24 06:23:53;;;;;;;5.75;1.60;;;;;;;24.58;31.53;99382.94;5049632;28;20044;-70
2021/07/24 06:26:18;;;;;;;1.52;1.42;;;;;;;24.34;32.87;99392.09;5067188;28;20533;-69
2021/07/24 06:28:44;;;;;;;6.80;1.70;;;;;;;24.82;31.32;99393.31;5049616;28;20087;-67
2021/07/24 06:31:10;;;;;;;7.25;1.80;;;;;;;24.38;32.34;99384.66;5052356;28;20528;-70
2021/07/24 06:33:35;;;;;;;5.60;1.48;;;;;;;24.58;32.34;99394.50;5069843;28;20166;-69
2021/07/24 06:36:01;;;;;;;2.33;1.70;;;;;;;24.91;31.22;99400.53;5069975;28;20045;-71
2021/07/24 06:38:27;;;;;;;1.65;1.55;;;;;;;24.41;30.33;99392.41;5069831;28;20040;-69
2021/07/24 06:40:54;;;;;;;5.03;1.77;;;;;;;24.38;30.59;99403.38;5068061;28;20507;-70
2021/07/24 06:43:19;;;;;;;2.85;2.10;;;;;;;24.96;30.43;99414.34;5053402;28;20417;-69
2021/07/24 06:45:48;;;;;;;1.65;1.40;;;;;;;24.36;31.13;99416.88;5069231;28;20494;-68
2021/07/24 06:48:13;;;;;;;3.17;1.70;;;;;;;24.46;31.01;99410.72;5071031;28;20048;-70
2021/07/24 06:50:39;;;;;;;5.40;1.80;;;;;;;25.05;30.33;99392.13;5052794;28;20067;-69
2021/07/24 06:53:05;;;;;;;2.13;1.80;;;;;;;25.17;29.87;99400.88;5020241;28;20063;-70
2021/07/24 06:55:31;;;;;;;3.33;2.20;;;;;;;27.62;25.82;99412.47;5057373;28;20385;-70
2021/07/24 06:58:03;;;;;;;2.45;2.00;;;;;;;28.60;24.14;99419.47;5093177;28;20047;-71
2021/07/24 07:00:32;;;;;;;4.72;2.20;;;;;;;29.48;23.31;99419.19;5072897;28;20040;-71
2021/07/24 07:02:59;;;;;;;5.38;1.92;;;;;;;29.82;22.66;99416.38;5091129;28;20036;-70
2021/07/24 07:05:26;;;;;;;4.22;2.20;;;;;;;30.58;22.37;99419.53;5073659;28;20132;-69
2021/07/24 07:07:53;;;;;;;3.13;2.00;;;;;;;31.47;20.64;99421.06;5088471;28;20040;-70
2021/07/24 07:10:19;;;;;;;3.95;1.50;;;;;;;30.96;20.86;99408.97;5088613;28;20509;-70
2021/07/24 07:12:45;;;;;;;6.43;2.15;;;;;;;29.65;22.62;99416.34;5088937;28;20128;-68
2021/07/24 07:15:11;;;;;;;4.28;2.00;;;;;;;27.88;24.25;99425.13;5088693;28;20918;-70
2021/07/24 07:17:37;;;;;;;7.30;2.30;;;;;;;29.23;22.56;99416.41;5071348;28;20504;-70
2021/07/24 07:20:05;;;;;;;7.43;2.10;;;;;;;30.62;20.24;99411.97;5089669;28;20055;-69
2021/07/24 07:22:30;;;;;;;5.47;1.65;;;;;;;28.71;22.73;99416.50;5072738;28;20036;-67
2021/07/24 07:24:56;;;;;;;2.15;1.20;;;;;;;26.09;26.15;99396.88;5071477;28;20046;-69
2021/07/24 07:27:22;;;;;;;4.72;2.00;;;;;;;27.34;25.14;99419.69;5090639;28;20169;-71
2021/07/24 07:29:48;;;;;;;2.47;1.88;;;;;;;28.74;22.93;99421.56;5073287;28;20056;-67
2021/07/24 07:32:14;;;;;;;2.88;1.10;;;;;;;29.84;21.56;99423.28;5088546;28;20055;-70
2021/07/24 07:34:40;;;;;;;4.07;2.00;;;;;;;29.68;20.75;99417.88;5087213;28;20117;-69
2021/07/24 07:37:06;;;;;;;9.10;1.33;;;;;;;29.44;21.32;99429.47;5088861;28;20077;-69
2021/07/24 07:39:32;;;;;;;3.72;1.17;;;;;;;27.45;23.90;99422.16;5089087;28;20135;-70
2021/07/24 07:41:58;;;;;;;3.33;1.83;;;;;;;27.46;24.25;99431.06;5072273;28;20126;-72
2021/07/24 07:44:24;;;;;;;2.78;1.63;;;;;;;28.61;22.60;99414.94;5092326;28;20047;-71
2021/07/24 07:46:51;;;;;;;4.30;1.80;;;;;;;30.00;20.42;99425.16;5073823;28;20043;-71
2021/07/24 07:49:17;;;;;;;4.93;1.20;;;;;;;30.66;20.14;99427.66;5086779;28;20078;-70
2021/07/24 07:51:43;;;;;;;3.50;1.48;;;;;;;31.77;18.78;99434.75;5053379;28;20056;-72
2021/07/24 07:54:09;;;;;;;1.42;1.20;;;;;;;30.14;20.74;99435.28;5070760;28;20767;-71
2021/07/24 07:56:35;;;;;;;8.07;2.05;;;;;;;29.06;22.07;99436.22;5088340;28;20039;-70
2021/07/24 07:59:01;;;;;;;10.48;2.92;;;;;;;28.22;25.52;99436.84;5088654;28;20040;-70
2021/07/24 08:01:26;;;;;;;7.88;1.75;;;;;;;27.99;22.91;99427.59;5072852;28;20130;-70
2021/07/24 08:03:52;;;;;;;3.20;1.95;;;;;;;29.41;21.34;99441.38;5037409;28;20035;-72
2021/07/24 08:06:19;;;;;;;4.15;1.90;;;;;;;31.06;19.28;99450.13;5055764;28;20062;-71
2021/07/24 08:08:44;;;;;;;2.85;1.52;;;;;;;30.74;19.77;99434.03;5054814;28;20100;-70
2021/07/24 08:11:11;;;;;;;4.50;1.80;;;;;;;31.90;18.28;99449.34;5071594;28;20036;-70
2021/07/24 08:13:36;;;;;;;4.28;1.90;;;;;;;31.66;18.64;99457.63;5091511;28;20050;-71
2021/07/24 08:16:02;;;;;;;6.35;1.67;;;;;;;32.03;17.87;99453.34;5038742;28;20131;-72
2021/07/24 08:18:28;;;;;;;4.57;1.50;;;;;;;32.13;17.60;99451.22;5089107;28;20052;-68
2021/07/24 08:20:54;;;;;;;4.93;1.45;;;;;;;32.11;17.76;99447.84;5055691;28;20044;-69
2021/07/24 08:23:20;;;;;;;3.22;1.60;;;;;;;31.44;18.22;99448.47;5073570;28;20032;-71
2021/07/24 08:25:46;;;;;;;2.83;1.15;;;;;;;29.90;19.85;99452.28;5039131;28;20552;-70
2021/07/24 08:28:12;;;;;;;8.35;1.40;;;;;;;29.13;21.31;99453.44;5056996;28;20412;-70
2021/07/24 08:30:37;;;;;;;4.60;1.77;;;;;;;29.72;20.42;99454.28;5090094;28;20036;-70
2021/07/24 08:33:04;;;;;;;8.55;1.30;;;;;;;28.26;22.45;99461.63;5088977;28;20056;-72
2021/07/24 08:35:29;;;;;;;4.32;1.88;;;;;;;27.21;23.58;99462.19;5070572;28;20040;-70
2021/07/24 08:37:55;;;;;;;6.75;1.60;;;;;;;25.68;25.68;99445.41;5036984;28;20089;-69
2021/07/24 08:40:21;;;;;;;3.22;2.00;;;;;;;27.75;22.82;99463.16;5070566;28;20133;-70
2021/07/24 08:42:47;;;;;;;2.85;2.10;;;;;;;29.69;20.76;99465.38;5071080;28;20493;-71
2021/07/24 08:45:14;;;;;;;3.03;1.67;;;;;;;30.74;18.70;99463.75;5090077;28;20078;-69
2021/07/24 08:47:40;;;;;;;6.03;1.65;;;;;;;31.32;18.14;99473.38;5088089;28;20043;-69
2021/07/24 08:50:08;;;;;;;4.50;1.73;;;;;;;31.36;18.38;99480.09;5088796;28;20054;-70
2021/07/24 08:52:35;;;;;;;3.40;1.60;;;;;;;30.09;19.56;99467.31;5072346;28;20421;-72
2021/07/24 08:55:04;;;;;;;5.20;1.88;;;;;;;29.21;21.00;99461.53;5089440;28;20036;-69
2021/07/24 08:57:34;;;;;;;2.25;1.05;;;;;;;29.69;20.69;99476.16;5091179;28;20131;-68
2021/07/24 09:00:15;;;;;;;9.13;1.33;;;;;;;28.29;22.49;99464.00;5089201;28;20451;-70
2021/07/24 09:02:45;;;;;;;7.85;2.00;;;;;;;28.35;22.15;99464.22;5072281;28;20048;-71
2021/07/24 09:05:13;;;;;;;2.70;1.70;;;;;;;29.22;20.92;99446.22;5089606;28;20413;-72
2021/07/24 09:07:46;;;;;;;2.55;1.50;;;;;;;29.82;20.37;99462.22;5089388;28;20046;-70
2021/07/24 09:10:13;;;;;;;1.48;1.35;;;;;;;29.37;20.68;99464.28;5072490;28;20048;-71
2021/07/24 09:12:40;;;;;;;2.92;1.60;;;;;;;29.60;20.77;99477.16;5088622;28;20103;-70
2021/07/24 09:15:07;;;;;;;3.65;1.20;;;;;;;28.43;22.36;99471.50;5088164;28;20039;-72
2021/07/24 09:17:33;;;;;;;3.90;1.23;;;;;;;27.94;23.17;99476.44;5071664;28;20102;-72
2021/07/24 09:20:00;;;;;;;3.42;1.23;;;;;;;27.84;23.02;99484.59;5069688;28;20047;-72
2021/07/24 09:22:40;;;;;;;3.30;1.50;;;;;;;27.00;24.02;99469.66;5070690;28;20048;-72
2021/07/24 09:25:08;;;;;;;4.70;1.10;;;;;;;26.66;24.57;99467.47;5084329;28;20075;-71
2021/07/24 09:27:41;;;;;;;2.47;1.20;;;;;;;25.91;25.13;99470.94;5069602;28;20051;-70
2021/07/24 09:30:08;;;;;;;4.68;1.00;;;;;;;25.47;26.45;99474.97;5088036;28;20055;-70
2021/07/24 09:32:34;;;;;;;5.28;1.20;;;;;;;25.15;27.17;99467.09;5086376;28;20406;-69
2021/07/24 09:35:00;;;;;;;6.20;1.20;;;;;;;25.05;27.19;99460.88;5085254;28;20384;-71
2021/07/24 09:37:30;;;;;;;1.40;1.08;;;;;;;24.92;27.59;99483.34;5051991;28;20074;-70
2021/07/24 09:39:58;;;;;;;5.80;1.60;;;;;;;24.96;27.47;99479.41;5087823;28;20066;-71
2021/07/24 09:42:33;;;;;;;5.53;1.40;;;;;;;24.98;27.24;99485.50;5087266;28;20044;-71
2021/07/24 09:45:09;;;;;;;2.83;1.40;;;;;;;24.67;27.55;99473.09;5069793;28;20078;-71
2021/07/24 09:47:35;;;;;;;3.13;1.30;;;;;;;24.84;27.40;99483.16;5087258;28;20048;-70
2021/07/24 09:50:14;;;;;;;3.08;1.17;;;;;;;24.75;27.17;99480.44;5056843;28;20527;-69
2021/07/24 09:52:53;;;;;;;4.28;1.50;;;;;;;23.90;28.10;99467.19;5057693;28;20528;-72
2021/07/24 09:55:29;;;;;;;3.85;1.50;;;;;;;23.60;28.76;99465.19;5070669;28;20040;-69
2021/07/24 09:57:56;;;;;;;2.95;1.33;;;;;;;23.53;29.09;99494.19;5087131;28;20048;-70
2021/07/24 10:00:30;;;;;;;7.57;1.20;;;;;;;23.36;29.13;99478.72;5049778;28;20154;-70
2021/07/24 10:03:00;;;;;;;2.05;1.60;;;;;;;23.37;29.49;99494.59;5087795;28;20032;-70
2021/07/24 10:05:44;;;;;;;4.47;1.20;;;;;;;23.53;29.01;99494.19;5092429;28;20052;-69
2021/07/24 10:08:15;;;;;;;3.50;1.30;;;;;;;23.54;28.21;99482.53;5060060;28;20042;-69
2021/07/24 10:10:42;;;;;;;5.95;1.13;;;;;;;23.58;28.05;99488.50;5059177;28;20036;-70
2021/07/24 10:13:10;;;;;;;1.80;1.15;;;;;;;23.32;27.72;99467.44;5077350;28;20044;-70
2021/07/24 10:15:38;;;;;;;3.40;1.27;;;;;;;23.68;27.93;99495.63;5060010;28;20043;-71
2021/07/24 10:18:06;;;;;;;3.35;1.30;;;;;;;23.96;27.24;99488.03;5075712;28;20044;-72
2021/07/24 10:20:37;;;;;;;2.67;1.20;;;;;;;24.11;27.14;99484.06;5091191;28;20059;-72
2021/07/24 10:23:03;;;;;;;4.07;1.10;;;;;;;23.96;28.04;99482.69;5091906;28;20055;-72
2021/07/24 10:25:29;;;;;;;3.78;1.30;;;;;;;24.04;27.93;99486.41;5073613;28;20044;-69
2021/07/24 10:27:56;;;;;;;2.58;1.27;;;;;;;24.10;28.05;99490.41;5090539;28;20047;-70
2021/07/24 10:30:28;;;;;;;3.90;1.20;;;;;;;24.20;28.02;99503.84;5058522;28;20050;-69
2021/07/24 10:32:56;;;;;;;3.42;1.30;;;;;;;24.39;27.48;99499.50;5074189;28;20472;-70
2021/07/24 10:35:40;;;;;;;3.75;1.75;;;;;;;24.35;27.70;99506.09;5073688;28;20044;-71
2021/07/24 10:38:30;;;;;;;2.00;1.30;;;;;;;24.43;27.80;99497.41;5038773;28;20066;-72
2021/07/24 10:41:24;;;;;;;3.38;1.55;;;;;;;24.15;27.45;99504.22;5086535;28;20044;-70
2021/07/24 10:44:05;;;;;;;3.75;1.30;;;;;;;24.20;28.87;99501.16;5090067;28;20056;-72
2021/07/24 10:46:40;;;;;;;5.50;1.70;;;;;;;24.17;29.18;99502.25;5056585;28;20077;-70
2021/07/24 10:49:21;;;;;;;3.83;2.10;;;;;;;24.55;28.90;99506.25;5092144;28;20060;-71
2021/07/24 10:51:58;;;;;;;4.30;1.75;;;;;;;24.63;29.17;99501.09;5055171;28;20126;-71
2021/07/24 10:54:24;;;;;;;1.73;1.30;;;;;;;24.76;28.70;99499.03;5057379;28;20054;-73
2021/07/24 10:56:51;;;;;;;3.70;1.30;;;;;;;24.79;27.62;99512.16;5090764;28;20044;-71
2021/07/24 10:59:29;;;;;;;3.92;1.33;;;;;;;24.92;28.06;99518.13;5074950;28;20048;-73
2021/07/24 11:01:59;;;;;;;1.38;1.23;;;;;;;24.90;28.38;99521.91;5093941;28;20043;-71
2021/07/24 11:04:38;;;;;;;5.00;1.40;;;;;;;24.62;29.31;99523.44;5076321;28;20047;-73
2021/07/24 11:07:13;;;;;;;2.78;1.50;;;;;;;24.58;29.69;99517.53;5076388;28;20047;-72
2021/07/24 11:09:39;;;;;;;2.35;1.27;;;;;;;24.29;29.59;99522.66;5058686;28;20139;-70
2021/07/24 11:12:16;;;;;;;9.18;1.50;;;;;;;24.49;29.51;99528.13;5059139;28;20052;-72
2021/07/24 11:14:49;;;;;;;5.97;1.05;;;;;;;23.81;29.91;99527.56;5038258;28;20040;-70
2021/07/24 11:17:16;;;;;;;2.45;0.90;;;;;;;23.18;30.74;99522.91;5054505;28;20509;-74
2021/07/24 11:20:08;;;;;;;1.30;1.10;;;;;;;23.59;30.01;99555.16;5055729;28;20165;-71
2021/07/24 11:22:38;;;;;;;5.67;1.00;;;;;;;23.74;29.97;99551.22;5070841;28;20124;-72
2021/07/24 11:25:04;;;;;;;2.22;1.00;;;;;;;24.04;28.57;99549.69;5072134;28;20052;-70
2021/07/24 11:27:32;;;;;;;6.85;1.25;;;;;;;24.48;28.46;99531.78;5071312;28;20407;-73
2021/07/24 11:30:04;;;;;;;5.82;1.38;;;;;;;24.86;27.63;99540.06;5052311;28;20051;-70
2021/07/24 11:32:31;;;;;;;2.25;1.10;;;;;;;24.35;27.39;99554.22;5069632;28;20052;-71
2021/07/24 11:34:58;;;;;;;1.80;1.27;;;;;;;24.28;27.55;99557.53;5071619;28;20501;-71
2021/07/24 11:37:41;;;;;;;1.95;1.00;;;;;;;24.27;27.28;99553.16;5069909;28;20048;-71
2021/07/24 11:40:12;;;;;;;2.25;1.10;;;;;;;24.27;27.26;99559.34;5035793;28;20403;-71